createdAt,value
2023-01-11T03:59:20.102Z,20.26
2023-01-11T04:00:20.110Z,20.10
2023-01-11T04:01:19.924Z,20.15
2023-01-11T04:02:19.935Z,20.16
2023-01-11T04:03:19.923Z,20.18
2023-01-11T04:04:19.927Z,20.18
2023-01-11T04:05:20.116Z,20.20
2023-01-11T04:06:18.922Z,20.23
2023-01-11T04:07:18.891Z,20.15
2023-01-11T04:08:18.871Z,20.16
2023-01-11T04:09:20.075Z,20.32
2023-01-11T04:10:18.874Z,20.22
2023-01-11T04:11:20.093Z,20.27
2023-01-11T04:12:19.857Z,20.29
2023-01-11T04:13:19.859Z,20.27
2023-01-11T04:14:18.846Z,20.22
2023-01-11T04:15:20.581Z,20.26
2023-01-11T04:16:19.866Z,20.30
2023-01-11T04:17:20.614Z,20.26
2023-01-11T04:18:19.815Z,20.38
2023-01-11T04:19:20.579Z,20.35
2023-01-11T04:20:19.815Z,20.41
2023-01-11T04:21:20.632Z,20.42
2023-01-11T04:22:19.805Z,20.46
2023-01-11T04:23:20.627Z,20.51
2023-01-11T04:24:20.132Z,20.40
2023-01-11T04:25:20.602Z,20.41
2023-01-11T04:26:20.598Z,20.54
2023-01-11T04:27:20.574Z,20.51
2023-01-11T04:28:19.804Z,20.51
2023-01-11T04:29:20.600Z,20.60
2023-01-11T04:30:19.756Z,20.57
2023-01-11T04:31:20.692Z,20.57
2023-01-11T04:32:20.627Z,20.58
2023-01-11T04:33:20.600Z,20.60
2023-01-11T04:34:20.582Z,20.57
2023-01-11T04:35:20.591Z,20.60
2023-01-11T04:36:20.626Z,20.64
2023-01-11T04:37:20.641Z,20.63
2023-01-11T04:38:20.623Z,20.68
2023-01-11T04:39:20.104Z,20.63
2023-01-11T04:40:18.737Z,20.61
2023-01-11T04:41:18.713Z,20.68
2023-01-11T04:42:20.117Z,20.66
2023-01-11T04:43:20.151Z,20.67
2023-01-11T04:44:20.607Z,20.68
2023-01-11T04:45:20.599Z,20.68
2023-01-11T04:46:20.614Z,20.81
2023-01-11T04:47:20.610Z,20.76
2023-01-11T04:48:19.695Z,20.81
2023-01-11T04:49:20.633Z,20.82
2023-01-11T04:50:20.636Z,20.82
2023-01-11T04:51:20.109Z,20.78
2023-01-11T04:52:20.636Z,20.79
2023-01-11T04:53:20.629Z,20.85
2023-01-11T04:54:20.650Z,20.85
2023-01-11T04:55:20.679Z,20.86
2023-01-11T04:56:20.615Z,20.76
2023-01-11T04:57:20.620Z,20.79
2023-01-11T04:58:20.606Z,20.90
2023-01-11T04:59:20.613Z,20.94
2023-01-11T05:00:20.652Z,20.91
2023-01-11T05:01:20.745Z,20.94
2023-01-11T05:02:20.170Z,20.90
2023-01-11T05:03:20.120Z,20.93
2023-01-11T05:04:20.205Z,20.93
2023-01-11T05:05:20.185Z,20.94
2023-01-11T05:06:20.113Z,20.85
2023-01-11T05:07:20.178Z,20.90
2023-01-11T05:08:20.149Z,20.96
2023-01-11T05:09:20.152Z,20.85
2023-01-11T05:10:21.093Z,20.98
2023-01-11T05:11:19.604Z,21.03
2023-01-11T05:12:19.645Z,21.00
2023-01-11T05:13:19.619Z,21.03
2023-01-11T05:14:19.578Z,20.97
2023-01-11T05:15:20.139Z,20.96
2023-01-11T05:16:20.229Z,21.00
2023-01-11T05:17:20.129Z,20.98
2023-01-11T05:18:20.155Z,20.98
2023-01-11T05:19:20.133Z,20.96
2023-01-11T05:20:20.122Z,20.98
2023-01-11T05:21:20.135Z,20.96
2023-01-11T05:22:20.133Z,21.00
2023-01-11T05:23:20.151Z,21.08
2023-01-11T05:24:20.150Z,21.06
2023-01-11T05:25:20.128Z,21.06
2023-01-11T05:26:20.166Z,20.97
2023-01-11T05:27:20.130Z,21.04
2023-01-11T05:28:20.128Z,21.03
2023-01-11T05:29:20.159Z,21.04
2023-01-11T05:30:20.147Z,20.91
2023-01-11T05:31:20.190Z,20.97
2023-01-11T05:32:20.513Z,21.01
2023-01-11T05:33:20.141Z,21.00
2023-01-11T05:34:20.166Z,21.00
2023-01-11T05:35:20.162Z,21.01
2023-01-11T05:36:20.153Z,21.04
2023-01-11T05:37:19.496Z,21.01
2023-01-11T05:38:19.465Z,21.03
2023-01-11T05:39:19.452Z,21.03
2023-01-11T05:40:18.460Z,21.04
2023-01-11T05:41:19.648Z,21.09
2023-01-11T05:42:18.450Z,20.96
2023-01-11T05:43:20.160Z,20.98
2023-01-11T05:44:19.658Z,21.03
2023-01-11T05:45:18.441Z,21.06
2023-01-11T05:46:20.155Z,21.04
2023-01-11T05:47:19.436Z,21.06
2023-01-11T05:48:20.147Z,20.96
2023-01-11T05:49:19.422Z,21.03
2023-01-11T05:50:20.159Z,20.97
2023-01-11T05:51:20.166Z,20.97
2023-01-11T05:52:19.663Z,21.11
2023-01-11T05:53:20.171Z,21.08
2023-01-11T05:54:19.402Z,21.04
2023-01-11T05:55:20.172Z,21.03
2023-01-11T05:56:20.166Z,20.96
2023-01-11T05:57:19.391Z,21.08
2023-01-11T05:58:20.175Z,21.08
2023-01-11T05:59:20.156Z,21.09
2023-01-11T06:00:19.673Z,21.06
2023-01-11T06:01:20.159Z,21.06
2023-01-11T06:02:19.490Z,20.96
2023-01-11T06:03:20.221Z,21.08
2023-01-11T06:04:19.358Z,20.98
2023-01-11T06:05:20.186Z,21.04
2023-01-11T06:06:19.360Z,21.12
2023-01-11T06:07:19.379Z,21.06
2023-01-11T06:08:18.345Z,21.11
2023-01-11T06:09:18.345Z,21.01
2023-01-11T06:10:19.676Z,21.09
2023-01-11T06:11:19.679Z,21.06
2023-01-11T06:12:18.330Z,21.09
2023-01-11T06:13:19.679Z,21.03
2023-01-11T06:14:18.324Z,21.09
2023-01-11T06:15:18.314Z,21.08
2023-01-11T06:16:19.740Z,21.00
2023-01-11T06:17:19.684Z,21.08
2023-01-11T06:18:20.171Z,21.09
2023-01-11T06:19:20.183Z,21.09
2023-01-11T06:20:20.175Z,21.08
2023-01-11T06:21:19.684Z,21.08
2023-01-11T06:22:20.170Z,21.00
2023-01-11T06:23:20.183Z,21.01
2023-01-11T06:24:20.185Z,21.08
2023-01-11T06:25:20.183Z,21.06
2023-01-11T06:26:20.186Z,21.09
2023-01-11T06:27:20.189Z,21.00
2023-01-11T06:28:20.179Z,21.06
2023-01-11T06:29:20.217Z,21.12
2023-01-11T06:30:19.260Z,21.11
2023-01-11T06:31:20.322Z,21.08
2023-01-11T06:32:19.247Z,21.03
2023-01-11T06:33:18.245Z,21.03
2023-01-11T06:34:19.704Z,21.08
2023-01-11T06:35:19.233Z,21.08
2023-01-11T06:36:19.701Z,21.04
2023-01-11T06:37:19.241Z,21.13
2023-01-11T06:38:18.231Z,21.13
2023-01-11T06:39:18.241Z,21.06
2023-01-11T06:40:18.227Z,21.09
2023-01-11T06:41:19.218Z,21.09
2023-01-11T06:42:19.698Z,21.09
2023-01-11T06:43:19.205Z,21.11
2023-01-11T06:44:18.204Z,21.06
2023-01-11T06:45:18.195Z,21.13
2023-01-11T06:46:19.352Z,21.15
2023-01-11T06:47:18.195Z,21.12
2023-01-11T06:48:18.179Z,21.06
2023-01-11T06:49:19.692Z,21.13
2023-01-11T06:50:19.693Z,21.12
2023-01-11T06:51:19.706Z,21.15
2023-01-11T06:52:19.699Z,21.15
2023-01-11T06:53:18.153Z,21.12
2023-01-11T06:54:19.696Z,21.15
2023-01-11T06:55:18.227Z,21.16
2023-01-11T06:56:19.727Z,21.12
2023-01-11T06:57:18.208Z,21.15
2023-01-11T06:58:18.205Z,21.09
2023-01-11T06:59:19.730Z,21.15
2023-01-11T07:00:19.709Z,21.13
2023-01-11T07:01:20.943Z,21.11
2023-01-11T07:02:19.703Z,21.12
2023-01-11T07:03:18.160Z,21.27
2023-01-11T07:04:18.119Z,21.12
2023-01-11T07:05:19.393Z,21.12
2023-01-11T07:06:19.730Z,21.15
2023-01-11T07:07:19.748Z,21.19
2023-01-11T07:08:18.096Z,21.15
2023-01-11T07:09:18.122Z,21.21
2023-01-11T07:10:19.722Z,21.16
2023-01-11T07:11:18.147Z,21.18
2023-01-11T07:12:19.727Z,21.13
2023-01-11T07:13:18.090Z,21.09
2023-01-11T07:14:19.745Z,21.21
2023-01-11T07:15:19.732Z,21.19
2023-01-11T07:16:18.107Z,21.21
2023-01-11T07:17:18.058Z,21.18
2023-01-11T07:18:18.054Z,21.19
2023-01-11T07:19:19.732Z,21.21
2023-01-11T07:20:18.048Z,21.19
2023-01-11T07:21:19.732Z,21.18
2023-01-11T07:22:19.719Z,21.21
2023-01-11T07:23:19.733Z,21.22
2023-01-11T07:24:19.723Z,21.23
2023-01-11T07:25:19.726Z,21.19
2023-01-11T07:26:19.749Z,21.22
2023-01-11T07:27:19.757Z,21.22
2023-01-11T07:28:19.753Z,21.23
2023-01-11T07:29:19.735Z,21.18
2023-01-11T07:30:19.725Z,21.21
2023-01-11T07:31:19.878Z,21.22
2023-01-11T07:32:19.783Z,21.16
2023-01-11T07:33:19.747Z,21.16
2023-01-11T07:34:19.739Z,21.16
2023-01-11T07:35:19.732Z,21.22
2023-01-11T07:36:19.740Z,21.21
2023-01-11T07:37:29.047Z,21.13
2023-01-11T07:38:19.746Z,21.16
2023-01-11T07:39:19.732Z,21.18
2023-01-11T07:40:19.744Z,21.22
2023-01-11T07:41:19.736Z,21.19
2023-01-11T07:42:19.735Z,21.21
2023-01-11T07:43:19.787Z,21.22
2023-01-11T07:45:19.921Z,21.23
2023-01-11T07:46:19.870Z,21.23
2023-01-11T07:47:19.764Z,21.22
2023-01-11T07:48:19.780Z,21.21
2023-01-11T07:49:19.740Z,21.30
2023-01-11T07:50:17.957Z,21.22
2023-01-11T07:51:17.993Z,21.25
2023-01-11T07:52:20.116Z,21.22
2023-01-11T07:53:19.916Z,21.25
2023-01-11T07:54:19.770Z,21.25
2023-01-11T07:55:19.752Z,21.27
2023-01-11T07:56:19.776Z,21.28
2023-01-11T07:57:19.807Z,21.21
2023-01-11T07:58:19.763Z,21.25
2023-01-11T07:59:19.836Z,21.22
2023-01-11T08:00:19.754Z,21.18
2023-01-11T08:01:19.760Z,21.30
2023-01-11T08:02:19.803Z,21.23
2023-01-11T08:03:19.960Z,21.31
2023-01-11T08:04:19.758Z,21.30
2023-01-11T08:05:19.769Z,21.33
2023-01-11T08:06:19.777Z,21.27
2023-01-11T08:07:19.751Z,21.36
2023-01-11T08:08:19.840Z,21.30
2023-01-11T08:09:19.763Z,21.33
2023-01-11T08:10:19.768Z,21.36
2023-01-11T08:11:19.763Z,21.21
2023-01-11T08:13:19.776Z,21.30
2023-01-11T08:14:19.774Z,21.28
2023-01-11T08:15:21.256Z,21.28
2023-01-11T08:16:19.813Z,21.30
2023-01-11T08:17:19.806Z,21.36
2023-01-11T08:18:19.835Z,21.33
2023-01-11T08:19:19.779Z,21.27
2023-01-11T08:20:19.775Z,21.28
2023-01-11T08:21:17.814Z,21.33
2023-01-11T08:22:19.814Z,21.31
2023-01-11T08:23:19.771Z,21.37
2023-01-11T08:24:19.330Z,21.28
2023-01-11T08:25:18.848Z,21.33
2023-01-11T08:26:18.780Z,21.33
2023-01-11T08:27:19.619Z,21.33
2023-01-11T08:29:21.029Z,21.36
2023-01-11T08:30:21.751Z,21.33
2023-01-11T08:31:17.949Z,21.34
2023-01-11T08:32:18.052Z,21.37
2023-01-11T08:33:17.866Z,21.37
2023-01-11T08:34:19.323Z,21.33
2023-01-11T08:35:17.764Z,21.37
2023-01-11T08:36:17.869Z,21.31
2023-01-11T08:37:19.442Z,21.34
2023-01-11T08:38:17.857Z,21.36
2023-01-11T08:39:17.872Z,21.37
2023-01-11T08:40:20.096Z,21.34
2023-01-11T08:41:18.047Z,21.34
2023-01-11T08:42:19.519Z,21.34
2023-01-11T08:43:17.889Z,21.34
2023-01-11T08:44:25.445Z,21.36
2023-01-11T08:45:17.817Z,21.36
2023-01-11T08:46:17.896Z,21.36
2023-01-11T08:47:17.747Z,21.46
2023-01-11T08:48:19.358Z,21.33
2023-01-11T08:49:17.768Z,21.45
2023-01-11T08:50:17.712Z,21.37
2023-01-11T08:51:20.252Z,21.41
2023-01-11T08:52:17.834Z,21.37
2023-01-11T08:53:17.756Z,21.43
2023-01-11T08:54:17.723Z,21.34
2023-01-11T08:55:17.828Z,21.37
2023-01-11T08:56:18.933Z,21.38
2023-01-11T08:57:17.731Z,21.46
2023-01-11T08:58:17.952Z,21.52
2023-01-11T08:59:19.684Z,21.48
2023-01-11T09:00:19.352Z,21.51
2023-01-11T09:01:19.391Z,21.46
2023-01-11T09:02:19.340Z,21.48
2023-01-11T09:03:19.369Z,21.46
2023-01-11T09:04:25.150Z,21.49
2023-01-11T09:05:19.298Z,21.49
2023-01-11T09:06:19.317Z,21.49
2023-01-11T09:07:19.321Z,21.51
2023-01-11T09:08:19.312Z,21.49
2023-01-11T09:09:19.310Z,21.49
2023-01-11T09:10:19.322Z,21.41
2023-01-11T09:11:19.313Z,21.49
2023-01-11T09:12:19.311Z,21.46
2023-01-11T09:13:19.328Z,21.48
2023-01-11T09:14:19.328Z,21.49
2023-01-11T09:15:19.339Z,21.41
2023-01-11T09:16:19.368Z,21.53
2023-01-11T09:17:19.323Z,21.49
2023-01-11T09:18:19.320Z,21.51
2023-01-11T09:19:18.962Z,21.51
2023-01-11T09:21:19.326Z,21.48
2023-01-11T09:22:18.871Z,21.48
2023-01-11T09:23:17.572Z,21.48
2023-01-11T09:24:17.557Z,21.49
2023-01-11T09:25:19.334Z,21.53
2023-01-11T09:26:19.363Z,21.52
2023-01-11T09:27:17.612Z,21.48
2023-01-11T09:28:19.325Z,21.43
2023-01-11T09:30:19.324Z,21.51
2023-01-11T09:31:19.402Z,21.51
2023-01-11T09:32:19.345Z,21.45
2023-01-11T09:33:19.352Z,21.49
2023-01-11T09:34:17.519Z,21.49
2023-01-11T09:35:17.544Z,21.49
2023-01-11T09:36:18.860Z,21.46
2023-01-11T09:37:19.338Z,21.45
2023-01-11T09:38:19.334Z,21.45
2023-01-11T09:39:19.332Z,21.45
2023-01-11T09:40:19.362Z,21.48
2023-01-11T09:41:19.385Z,21.52
2023-01-11T09:42:19.377Z,21.45
2023-01-11T09:43:19.338Z,21.49
2023-01-11T09:44:19.338Z,21.45
2023-01-11T09:45:17.501Z,21.52
2023-01-11T09:46:19.343Z,21.51
2023-01-11T09:47:19.367Z,21.53
2023-01-11T09:48:17.527Z,21.48
2023-01-11T09:49:17.463Z,21.48
2023-01-11T09:50:17.487Z,21.56
2023-01-11T09:51:17.467Z,21.58
2023-01-11T09:52:19.365Z,21.55
2023-01-11T09:53:19.358Z,21.59
2023-01-11T09:54:17.444Z,21.58
2023-01-11T09:55:17.433Z,21.48
2023-01-11T09:56:17.436Z,21.48
2023-01-11T09:57:17.428Z,21.45
2023-01-11T09:58:19.388Z,21.58
2023-01-11T09:59:19.361Z,21.56
2023-01-11T10:00:19.352Z,21.59
2023-01-11T10:01:19.419Z,21.56
2023-01-11T10:18:29.331Z,21.48
2023-01-11T10:18:30.321Z,21.43
2023-01-11T10:18:33.758Z,21.45
2023-01-11T10:18:37.855Z,21.46
2023-01-11T10:18:53.775Z,21.46
2023-01-11T10:19:39.748Z,21.49
2023-01-11T10:20:31.852Z,21.46
2023-01-11T10:21:33.373Z,21.45
2023-01-11T10:22:33.372Z,21.51
2023-01-11T10:23:33.411Z,21.51
2023-01-11T10:24:33.371Z,21.43
2023-01-11T10:25:33.376Z,21.45
2023-01-11T10:26:33.525Z,21.51
2023-01-11T10:27:31.865Z,21.51
2023-01-11T10:28:33.562Z,21.59
2023-01-11T10:29:31.941Z,21.53
2023-01-11T10:30:31.916Z,21.51
2023-01-11T10:31:31.891Z,21.52
2023-01-11T10:32:31.769Z,21.51
2023-01-11T10:33:32.935Z,21.58
2023-01-11T10:34:32.154Z,21.58
2023-01-11T10:35:31.884Z,21.62
2023-01-11T10:36:33.484Z,21.61
2023-01-11T10:37:32.036Z,21.67
2023-01-11T10:38:31.731Z,21.64
2023-01-11T10:39:31.767Z,21.62
2023-01-11T10:40:38.407Z,21.67
2023-01-11T10:41:33.420Z,21.61
2023-01-11T10:42:31.714Z,21.61
2023-01-11T10:43:32.926Z,21.66
2023-01-11T10:44:33.398Z,21.66
2023-01-11T10:45:31.998Z,21.70
2023-01-11T10:46:33.444Z,21.76
2023-01-11T10:47:31.710Z,21.76
2023-01-11T10:48:32.003Z,21.71
2023-01-11T10:49:35.524Z,21.78
2023-01-11T10:50:31.686Z,21.70
2023-01-11T10:51:33.400Z,21.76
2023-01-11T10:52:33.419Z,21.76
2023-01-11T10:53:31.673Z,21.85
2023-01-11T10:54:33.410Z,21.83
2023-01-11T10:56:33.403Z,21.83
2023-01-11T10:57:33.412Z,21.80
2023-01-11T10:58:33.408Z,21.85
2023-01-11T10:59:33.416Z,21.89
2023-01-11T11:00:33.493Z,21.90
2023-01-11T11:01:33.402Z,21.89
2023-01-11T11:02:33.462Z,21.86
2023-01-11T11:03:33.410Z,21.94
2023-01-11T11:04:33.416Z,21.92
2023-01-11T11:05:33.413Z,21.96
2023-01-11T11:06:31.639Z,21.94
2023-01-11T11:07:31.642Z,21.96
2023-01-11T11:08:31.688Z,21.94
2023-01-11T11:09:33.451Z,21.97
2023-01-11T11:10:31.643Z,21.99
2023-01-11T11:11:31.658Z,21.96
2023-01-11T11:12:32.608Z,21.99
2023-01-11T11:13:31.615Z,22.00
2023-01-11T11:14:33.519Z,21.94
2023-01-11T11:15:33.420Z,22.00
2023-01-11T11:16:33.513Z,22.05
2023-01-11T11:17:33.419Z,22.07
2023-01-11T11:18:31.608Z,21.96
2023-01-11T11:19:31.595Z,22.09
2023-01-11T11:20:33.433Z,21.96
2023-01-11T11:21:33.445Z,22.05
2023-01-11T11:22:33.421Z,22.05
2023-01-11T11:23:31.574Z,21.97
2023-01-11T11:24:33.445Z,22.07
2023-01-11T11:25:33.433Z,22.00
2023-01-11T11:26:33.447Z,22.04
2023-01-11T11:27:32.571Z,21.97
2023-01-11T11:28:31.566Z,21.96
2023-01-11T11:29:33.439Z,22.00
2023-01-11T11:30:31.551Z,21.90
2023-01-11T11:31:31.600Z,21.93
2023-01-11T11:32:36.372Z,21.99
2023-01-11T11:33:33.450Z,21.96
2023-01-11T11:34:31.553Z,21.89
2023-01-11T11:35:31.590Z,21.94
2023-01-11T11:36:31.530Z,21.90
2023-01-11T11:37:31.520Z,21.99
2023-01-11T11:38:33.463Z,21.94
2023-01-11T11:39:31.512Z,21.96
2023-01-11T11:40:31.559Z,22.07
2023-01-11T11:41:31.507Z,21.96
2023-01-11T11:42:31.769Z,21.96
2023-01-11T11:43:33.449Z,21.99
2023-01-11T11:44:32.514Z,22.02
2023-01-11T11:45:31.535Z,21.92
2023-01-11T11:46:31.511Z,22.00
2023-01-11T11:47:33.442Z,21.99
2023-01-11T11:48:33.454Z,21.99
2023-01-11T11:49:31.521Z,21.99
2023-01-11T11:50:45.411Z,21.97
2023-01-11T11:51:31.464Z,21.97
2023-01-11T11:52:33.456Z,21.96
2023-01-11T11:53:33.485Z,22.00
2023-01-11T11:54:31.460Z,21.96
2023-01-11T11:55:31.776Z,22.04
2023-01-11T11:56:31.459Z,22.04
2023-01-11T11:57:31.460Z,22.09
2023-01-11T11:58:32.961Z,22.14
2023-01-11T11:59:31.454Z,22.14
2023-01-11T12:00:31.445Z,22.11
2023-01-11T12:01:32.608Z,22.12
2023-01-11T12:02:33.047Z,22.14
2023-01-11T12:03:33.007Z,22.12
2023-01-11T12:04:32.995Z,22.15
2023-01-11T12:05:31.423Z,22.26
2023-01-11T12:06:31.506Z,22.08
2023-01-11T12:07:31.550Z,22.08
2023-01-11T12:08:32.976Z,22.12
2023-01-11T12:09:31.480Z,22.16
2023-01-11T12:11:31.405Z,22.24
2023-01-11T12:12:31.404Z,22.24
2023-01-11T12:13:37.535Z,22.18
2023-01-11T12:14:31.468Z,22.18
2023-01-11T12:15:31.450Z,22.23
2023-01-11T12:16:32.219Z,22.31
2023-01-11T12:17:31.611Z,22.34
2023-01-11T12:18:32.139Z,22.36
2023-01-11T12:19:31.379Z,22.41
2023-01-11T12:20:33.039Z,22.44
2023-01-11T12:21:32.994Z,22.51
2023-01-11T12:22:33.075Z,22.52
2023-01-11T12:23:32.984Z,22.61
2023-01-11T12:24:32.973Z,22.54
2023-01-11T12:25:32.985Z,22.76
2023-01-11T12:26:33.023Z,22.82
2023-01-11T12:27:32.999Z,22.85
2023-01-11T12:28:31.345Z,22.82
2023-01-11T12:29:31.356Z,22.82
2023-01-11T12:30:31.371Z,22.84
2023-01-11T12:31:32.994Z,22.85
2023-01-11T12:32:31.342Z,22.97
2023-01-11T12:33:31.342Z,22.86
2023-01-11T12:34:33.005Z,22.94
2023-01-11T12:35:31.336Z,22.94
2023-01-11T12:36:31.328Z,22.94
2023-01-11T12:37:31.325Z,22.99
2023-01-11T12:38:31.363Z,23.01
2023-01-11T12:39:31.327Z,23.04
2023-01-11T12:40:33.002Z,23.01
2023-01-11T12:41:32.996Z,23.03
2023-01-11T12:42:31.325Z,23.06
2023-01-11T12:43:31.315Z,23.00
2023-01-11T12:44:31.302Z,22.97
2023-01-11T12:45:33.003Z,23.00
2023-01-11T12:46:31.300Z,22.96
2023-01-11T12:47:33.009Z,22.92
2023-01-11T12:48:31.291Z,22.96
2023-01-11T12:49:33.014Z,23.04
2023-01-11T12:50:32.308Z,23.16
2023-01-11T12:51:33.023Z,23.44
2023-01-11T12:52:33.014Z,23.57
2023-01-11T12:53:33.014Z,23.85
2023-01-11T12:54:33.003Z,24.02
2023-01-11T12:55:33.032Z,24.15
2023-01-11T12:56:33.011Z,24.21
2023-01-11T12:57:33.024Z,24.32
2023-01-11T12:58:33.041Z,24.45
2023-01-11T12:59:32.301Z,24.69
2023-01-11T13:00:33.001Z,24.77
2023-01-11T13:01:33.123Z,24.94
2023-01-11T13:02:33.106Z,25.04
2023-01-11T13:03:33.042Z,25.09
2023-01-11T13:04:33.007Z,25.20
2023-01-11T13:05:33.007Z,25.33
2023-01-11T13:06:33.016Z,25.37
2023-01-11T13:07:33.033Z,25.41
2023-01-11T13:08:33.029Z,25.39
2023-01-11T13:09:31.279Z,25.44
2023-01-11T13:10:31.266Z,25.39
2023-01-11T13:11:31.292Z,25.33
2023-01-11T13:12:31.273Z,25.39
2023-01-11T13:13:33.042Z,25.37
2023-01-11T13:14:31.335Z,25.37
2023-01-11T13:15:34.259Z,25.37
2023-01-11T13:16:31.298Z,25.47
2023-01-11T13:17:33.027Z,25.37
2023-01-11T13:18:33.052Z,25.34
2023-01-11T13:19:31.261Z,25.33
2023-01-11T13:20:40.469Z,25.33
2023-01-11T13:21:31.262Z,25.27
2023-01-11T13:22:33.113Z,25.33
2023-01-11T13:23:31.265Z,25.37
2023-01-11T13:24:33.057Z,25.37
2023-01-11T13:25:31.346Z,25.27
2023-01-11T13:26:33.028Z,25.24
2023-01-11T13:27:33.032Z,25.19
2023-01-11T13:28:33.045Z,25.07
2023-01-11T13:29:33.039Z,25.00
2023-01-11T13:30:33.075Z,25.02
2023-01-11T13:31:33.062Z,24.90
2023-01-11T13:32:33.040Z,24.85
2023-01-11T13:33:33.050Z,24.83
2023-01-11T13:34:33.065Z,24.66
2023-01-11T13:35:33.041Z,24.77
2023-01-11T13:36:33.051Z,24.96
2023-01-11T13:37:33.054Z,24.97
2023-01-11T13:38:34.681Z,25.09
2023-01-11T13:39:33.053Z,25.20
2023-01-11T13:40:33.077Z,25.32
2023-01-11T13:41:33.078Z,25.34
2023-01-11T13:42:33.046Z,25.37
2023-01-11T13:43:33.062Z,25.30
2023-01-11T13:44:33.895Z,25.22
2023-01-11T13:45:33.052Z,25.24
2023-01-11T13:46:32.304Z,25.17
2023-01-11T13:47:33.092Z,25.14
2023-01-11T13:48:33.065Z,25.17
2023-01-11T13:49:33.058Z,25.02
2023-01-11T13:50:33.063Z,25.02
2023-01-11T13:51:33.071Z,25.04
2023-01-11T13:52:33.053Z,25.04
2023-01-11T13:53:33.086Z,25.05
2023-01-11T13:54:33.059Z,25.05
2023-01-11T13:55:33.056Z,25.01
2023-01-11T13:56:33.092Z,25.02
2023-01-11T13:57:33.105Z,24.96
2023-01-11T13:58:33.374Z,24.94
2023-01-11T13:59:33.083Z,24.89
2023-01-11T14:00:33.063Z,24.85
2023-01-11T14:01:33.153Z,24.83
2023-01-11T14:02:33.080Z,24.85
2023-01-11T14:03:33.107Z,24.71
2023-01-11T14:04:33.076Z,24.75
2023-01-11T14:05:33.087Z,24.61
2023-01-11T14:06:31.224Z,24.61
2023-01-11T14:07:31.234Z,24.64
2023-01-11T14:08:31.225Z,24.58
2023-01-11T14:09:32.595Z,24.42
2023-01-11T14:10:31.215Z,24.40
2023-01-11T14:11:31.216Z,24.42
2023-01-11T14:12:31.217Z,24.26
2023-01-11T14:13:31.234Z,24.26
2023-01-11T14:14:33.117Z,24.21
2023-01-11T14:15:31.286Z,24.19
2023-01-11T14:16:33.101Z,24.07
2023-01-11T14:17:31.207Z,24.03
2023-01-11T14:18:32.596Z,23.97
2023-01-11T14:19:33.087Z,24.00
2023-01-11T14:20:33.093Z,24.02
2023-01-11T14:21:33.080Z,23.92
2023-01-11T14:22:33.106Z,23.99
2023-01-11T14:23:33.088Z,23.92
2023-01-11T14:24:33.088Z,23.79
2023-01-11T14:25:33.103Z,23.84
2023-01-11T14:26:33.085Z,23.78
2023-01-11T14:27:33.115Z,23.74
2023-01-11T14:28:33.101Z,23.70
2023-01-11T14:29:33.093Z,23.66
2023-01-11T14:30:33.092Z,23.63
2023-01-11T14:31:33.129Z,23.57
2023-01-11T14:32:33.099Z,23.56
2023-01-11T14:33:33.137Z,23.50
2023-01-11T14:34:33.091Z,23.40
2023-01-11T14:35:33.119Z,23.37
2023-01-11T14:36:33.114Z,23.41
2023-01-11T14:37:33.102Z,23.34
2023-01-11T14:38:33.116Z,23.26
2023-01-11T14:39:31.184Z,23.25
2023-01-11T14:40:31.172Z,23.21
2023-01-11T14:41:33.143Z,23.07
2023-01-11T14:42:35.102Z,23.06
2023-01-11T14:43:31.151Z,23.10
2023-01-11T14:44:33.139Z,23.03
2023-01-11T14:45:31.179Z,23.03
2023-01-11T14:46:33.211Z,22.94
2023-01-11T14:47:31.169Z,22.99
2023-01-11T14:48:31.156Z,22.89
2023-01-11T14:49:31.297Z,22.85
2023-01-11T14:50:31.131Z,22.75
2023-01-11T14:51:33.918Z,22.79
2023-01-11T14:52:39.628Z,22.75
2023-01-11T14:53:32.141Z,22.64
2023-01-11T14:54:32.650Z,22.61
2023-01-11T14:55:31.118Z,22.61
2023-01-11T14:56:32.612Z,22.60
2023-01-11T14:57:32.625Z,22.60
2023-01-11T14:58:32.612Z,22.57
2023-01-11T14:59:32.632Z,22.46
2023-01-11T15:00:32.625Z,22.44
2023-01-11T15:01:32.729Z,22.42
2023-01-11T15:02:32.624Z,22.48
2023-01-11T15:03:32.627Z,22.39
2023-01-11T15:04:32.712Z,22.44
2023-01-11T15:05:32.628Z,22.33
2023-01-11T15:06:32.626Z,22.26
2023-01-11T15:07:32.639Z,22.26
2023-01-11T15:08:32.639Z,22.22
2023-01-11T15:09:32.623Z,22.22
2023-01-11T15:10:32.625Z,22.14
2023-01-11T15:11:32.634Z,22.14
2023-01-11T15:12:32.625Z,22.27
2023-01-11T15:13:33.876Z,22.22
2023-01-11T15:14:32.665Z,22.15
2023-01-11T15:15:32.647Z,22.09
2023-01-11T15:16:32.696Z,22.11
2023-01-11T15:17:32.630Z,22.07
2023-01-11T15:18:31.055Z,22.07
2023-01-11T15:19:33.619Z,22.04
2023-01-11T15:20:32.147Z,21.97
2023-01-11T15:21:32.034Z,21.92
2023-01-11T15:22:32.642Z,22.02
2023-01-11T15:23:32.664Z,21.94
2023-01-11T15:24:32.035Z,21.92
2023-01-11T15:25:33.900Z,21.90
2023-01-11T15:26:32.650Z,21.86
2023-01-11T15:27:32.659Z,21.89
2023-01-11T15:28:32.156Z,21.83
2023-01-11T15:29:32.645Z,21.76
2023-01-11T15:30:32.695Z,21.83
2023-01-11T15:31:34.356Z,21.78
2023-01-11T15:32:32.681Z,21.80
2023-01-11T15:33:32.676Z,21.76
2023-01-11T15:34:32.651Z,21.73
2023-01-11T15:35:32.681Z,21.74
2023-01-11T15:36:32.665Z,21.77
2023-01-11T15:37:32.660Z,21.66
2023-01-11T15:38:32.679Z,21.67
2023-01-11T15:39:32.164Z,21.67
2023-01-11T15:40:30.974Z,21.56
2023-01-11T15:41:32.167Z,21.59
2023-01-11T15:42:30.985Z,21.64
2023-01-11T15:43:30.957Z,21.53
2023-01-11T15:44:30.991Z,21.49
2023-01-11T15:45:32.179Z,21.52
2023-01-11T15:46:32.213Z,21.58
2023-01-11T15:47:30.967Z,21.53
2023-01-11T15:48:31.053Z,21.46
2023-01-11T15:49:30.939Z,21.52
2023-01-11T15:50:30.940Z,21.48
2023-01-11T15:51:32.177Z,21.53
2023-01-11T15:52:30.924Z,21.41
2023-01-11T15:53:32.667Z,21.48
2023-01-11T15:54:32.666Z,21.43
2023-01-11T15:55:32.708Z,21.43
2023-01-11T15:56:31.909Z,21.38
2023-01-11T15:57:32.696Z,21.41
2023-01-11T15:58:32.673Z,21.34
2023-01-11T15:59:32.672Z,21.40
2023-01-11T16:00:32.732Z,21.30
2023-01-11T16:12:49.847Z,21.19
2023-01-11T16:13:50.323Z,21.28
2023-01-11T16:14:50.324Z,21.22
2023-01-11T16:15:50.315Z,21.12
2023-01-11T16:16:50.328Z,21.13
2023-01-11T16:17:50.319Z,21.13
2023-01-11T16:18:50.335Z,21.12
2023-01-11T16:19:50.323Z,21.12
2023-01-11T16:20:50.320Z,21.08
2023-01-11T16:21:50.324Z,21.08
2023-01-11T16:22:50.364Z,21.01
2023-01-11T16:23:49.736Z,21.08
2023-01-11T16:24:48.723Z,21.09
2023-01-11T16:25:49.854Z,21.11
2023-01-11T16:26:48.745Z,21.06
2023-01-11T16:27:49.091Z,21.06
2023-01-11T16:28:48.730Z,21.01
2023-01-11T16:29:48.705Z,20.97
2023-01-11T16:30:49.840Z,21.06
2023-01-11T16:31:49.867Z,20.97
2023-01-11T16:32:48.688Z,21.04
2023-01-11T16:33:49.937Z,20.94
2023-01-11T16:34:49.673Z,21.11
2023-01-11T16:35:49.668Z,21.04
2023-01-11T16:36:49.852Z,21.00
2023-01-11T16:37:49.843Z,21.03
2023-01-11T16:38:49.662Z,21.01
2023-01-11T16:39:49.654Z,21.06
2023-01-11T16:40:49.650Z,21.04
2023-01-11T16:41:49.844Z,21.03
2023-01-11T16:42:49.630Z,21.03
2023-01-11T16:43:50.376Z,21.03
2023-01-11T16:44:50.358Z,20.98
2023-01-11T16:45:49.678Z,21.03
2023-01-11T16:46:50.351Z,21.00
2023-01-11T16:47:49.876Z,21.06
2023-01-11T16:48:50.362Z,21.03
2023-01-11T16:49:50.348Z,20.90
2023-01-11T16:50:50.359Z,21.03
2023-01-11T16:51:50.347Z,21.00
2023-01-11T16:52:50.349Z,21.00
2023-01-11T16:53:50.413Z,20.98
2023-01-11T16:54:50.371Z,20.90
2023-01-11T16:55:50.371Z,20.88
2023-01-11T16:56:50.361Z,21.03
2023-01-11T16:57:50.354Z,21.04
2023-01-11T16:58:50.376Z,20.96
2023-01-11T16:59:49.582Z,21.00
2023-01-11T17:00:50.413Z,21.00
2023-01-11T17:01:48.688Z,21.08
2023-01-11T17:02:49.865Z,21.00
2023-01-11T17:03:49.862Z,21.00
2023-01-11T17:04:48.548Z,20.93
2023-01-11T17:05:49.533Z,21.00
2023-01-11T17:06:50.370Z,20.93
2023-01-11T17:07:50.361Z,21.00
2023-01-11T17:08:50.385Z,20.96
2023-01-11T17:09:50.375Z,20.96
2023-01-11T17:10:50.363Z,20.96
2023-01-11T17:11:50.378Z,21.04
2023-01-11T17:12:50.384Z,20.98
2023-01-11T17:13:50.380Z,21.01
2023-01-11T17:14:50.363Z,21.01
2023-01-11T17:15:50.391Z,20.97
2023-01-11T17:16:50.563Z,20.97
2023-01-11T17:17:50.375Z,20.96
2023-01-11T17:18:50.418Z,20.97
2023-01-11T17:19:49.887Z,20.97
2023-01-11T17:20:50.383Z,21.01
2023-01-11T17:21:50.402Z,21.01